Portada
METAR-TAF:

METAR-TAF

Aeroports :

Pavlodar, Kazakhstan

latitud: 52-11-42N, longitud: 077-04-26E, altitud: 125 m

Observació

L'informe es va fer fa 25 minuts, a les 04:30 UTC
Vent 6 kt del Oest/Sud-Oest, variant entre Sud-Oest i Oest
Temperatura 6°C
Humitat 52%
Pressió 1029 hPa
Visibilitat 10 km o més
Escasses núvols a una alçada de 1700 ft

METAR: UASP 300430Z 25003MPS 220V280 9999 FEW017 06/M03 Q1029 R21/0///60 NOSIG RMK QFE761/1014

Hora: 10:55 (04:55 UTC)

Pronòstic

L'informe es va fer fa 2 hores i 55 minuts, a les 02:00 UTC
Pronòstic vàlid del 30 a les 03 UTC al 30 a les 12 UTC
Vent 10 kt del Sud/Sud-Oest
Visibilitat 10 km o més
sense núvols per sota de 1500 mi sense presència de cumulonimbus.
Temporalment
l' 30 a les 03 UTC al 30 a les 09 UTC
Visibilitat: 3100 m
Núvols disperses a una alçada de 700 ft
fum

TAF: UASP 300200Z 3003/3012 20005MPS CAVOK TEMPO 3003/3009 3100 FU SCT007

Observacions i pronòstics meteorològics de més de 4000 aeroports (METAR i TAF).

Les estacions disponibles són els punts grocs i vermells al mapa.

Posi el ratolí al punt desitjat per veure el nom de l'estació.

Feu clic per veure les observacions i els pronòstics meteorològics.

Per canviar el mapa: feu clic els botons verds amb una creu de color negre per apropar; al botó verd amb un guió per allunyar la imatge; o en les fletxes verdes per a mapes adjacents.


METAR-TAF: